Time;durP1;ratioP1;P1;durP2;ratioP2;P2;SDS_P1;SDS_P2;PMS_P1;PMS_P2;Temp;Humidity;BMP_temperature;BMP_pressure;BME280_temperature;BME280_humidity;BME280_pressure;Samples;Min_cycle;Max_cycle;Signal;HPM_P1;HPM_P2
2021/11/03 00:01:57;;;;;;;3.88;2.13;;;;;;;;;;4929717;29;20122;-70
2021/11/03 00:04:23;;;;;;;6.63;2.42;;;;;;;;;;4927301;29;20026;-70
2021/11/03 00:06:49;;;;;;;5.45;1.98;;;;;;;;;;4924509;29;20150;-70
2021/11/03 00:09:16;;;;;;;8.35;2.38;;;;;;;;;;4924125;29;20028;-70
2021/11/03 00:11:42;;;;;;;6.03;2.20;;;;;;;;;;4924740;29;20095;-70
2021/11/03 00:14:08;;;;;;;4.78;1.63;;;;;;;;;;4924481;29;20414;-70
2021/11/03 00:16:34;;;;;;;4.32;1.80;;;;;;;;;;4921010;29;20140;-70
2021/11/03 00:19:01;;;;;;;5.38;1.83;;;;;;;;;;4922283;29;20415;-70
2021/11/03 00:21:27;;;;;;;6.03;1.90;;;;;;;;;;4923765;29;20060;-70
2021/11/03 00:23:53;;;;;;;10.57;2.60;;;;;;;;;;4924332;29;20055;-70
2021/11/03 00:26:19;;;;;;;5.57;2.03;;;;;;;;;;4920135;29;20933;-69
2021/11/03 00:28:46;;;;;;;7.20;1.80;;;;;;;;;;4924188;29;20523;-70
2021/11/03 00:31:12;;;;;;;8.68;2.33;;;;;;;;;;4924603;29;20074;-70
2021/11/03 00:33:38;;;;;;;4.63;1.70;;;;;;;;;;4923055;29;20358;-70
2021/11/03 00:36:04;;;;;;;6.38;2.00;;;;;;;;;;4927101;29;20036;-70
2021/11/03 00:38:31;;;;;;;8.18;1.60;;;;;;;;;;4923406;29;20048;-70
2021/11/03 00:40:57;;;;;;;6.07;2.33;;;;;;;;;;4922869;29;20042;-70
2021/11/03 00:43:24;;;;;;;4.43;1.88;;;;;;;;;;4925866;29;20030;-70
2021/11/03 00:45:50;;;;;;;10.15;1.75;;;;;;;;;;4922942;29;20031;-70
2021/11/03 00:48:17;;;;;;;3.85;1.33;;;;;;;;;;4924270;29;20031;-70
2021/11/03 00:50:43;;;;;;;2.58;1.52;;;;;;;;;;4923346;29;20032;-70
2021/11/03 00:53:09;;;;;;;5.82;1.85;;;;;;;;;;4921637;29;20567;-71
2021/11/03 00:55:36;;;;;;;4.40;1.30;;;;;;;;;;4922497;29;20039;-70
2021/11/03 00:58:02;;;;;;;2.53;1.40;;;;;;;;;;4922387;29;20039;-69
2021/11/03 01:00:28;;;;;;;5.40;1.75;;;;;;;;;;4925765;29;20119;-71
2021/11/03 01:02:55;;;;;;;4.47;1.40;;;;;;;;;;4921105;29;20028;-70
2021/11/03 01:05:22;;;;;;;4.28;1.45;;;;;;;;;;4919795;29;20020;-70
2021/11/03 01:07:48;;;;;;;3.90;1.55;;;;;;;;;;4921156;29;20111;-69
2021/11/03 01:10:15;;;;;;;5.15;1.77;;;;;;;;;;4919092;29;20036;-69
2021/11/03 01:12:43;;;;;;;4.95;1.73;;;;;;;;;;4919536;29;20031;-70
2021/11/03 01:15:11;;;;;;;5.22;1.50;;;;;;;;;;4923706;29;20028;-70
2021/11/03 01:17:37;;;;;;;5.60;1.75;;;;;;;;;;4920098;29;20028;-70
2021/11/03 01:20:07;;;;;;;4.20;1.80;;;;;;;;;;4920050;29;20063;-71
2021/11/03 01:22:34;;;;;;;4.13;1.58;;;;;;;;;;4919376;29;20032;-71
2021/11/03 01:25:00;;;;;;;3.80;1.38;;;;;;;;;;4922904;29;20143;-70
2021/11/03 01:27:26;;;;;;;5.93;2.40;;;;;;;;;;4921553;29;20031;-70
2021/11/03 01:29:52;;;;;;;5.30;1.83;;;;;;;;;;4916465;29;20127;-70
2021/11/03 01:32:18;;;;;;;6.28;1.58;;;;;;;;;;4921198;29;20028;-69
2021/11/03 01:34:44;;;;;;;6.13;1.85;;;;;;;;;;4918573;29;20066;-70
2021/11/03 01:37:11;;;;;;;9.40;2.08;;;;;;;;;;4920430;29;20035;-70
2021/11/03 01:39:37;;;;;;;6.32;1.77;;;;;;;;;;4921193;29;20163;-72
2021/11/03 01:42:03;;;;;;;5.15;1.65;;;;;;;;;;4918711;29;20123;-70
2021/11/03 01:44:29;;;;;;;5.38;1.92;;;;;;;;;;4921980;29;20103;-70
2021/11/03 01:47:14;;;;;;;5.30;1.50;;;;;;;;;;4917031;29;20063;-70
2021/11/03 01:49:40;;;;;;;3.60;1.17;;;;;;;;;;4921776;29;20124;-69
2021/11/03 01:52:08;;;;;;;6.03;1.80;;;;;;;;;;4918998;29;20516;-70
2021/11/03 01:54:39;;;;;;;6.75;1.60;;;;;;;;;;4921044;29;20024;-70
2021/11/03 01:57:08;;;;;;;6.43;1.50;;;;;;;;;;4923675;29;20754;-70
2021/11/03 01:59:35;;;;;;;6.88;1.40;;;;;;;;;;4915766;29;20291;-70
2021/11/03 02:02:02;;;;;;;4.50;1.85;;;;;;;;;;4915022;29;20095;-69
2021/11/03 02:04:30;;;;;;;3.17;1.85;;;;;;;;;;4920585;29;20074;-70
2021/11/03 02:06:57;;;;;;;6.63;1.75;;;;;;;;;;4916511;29;20028;-69
2021/11/03 02:09:23;;;;;;;5.68;1.73;;;;;;;;;;4920856;29;20020;-70
2021/11/03 02:11:50;;;;;;;4.65;2.00;;;;;;;;;;4918830;29;20476;-70
2021/11/03 02:14:16;;;;;;;7.40;2.15;;;;;;;;;;4921618;29;20059;-70
2021/11/03 02:16:44;;;;;;;6.60;2.10;;;;;;;;;;4917600;29;20138;-69
2021/11/03 02:19:14;;;;;;;6.10;2.05;;;;;;;;;;4922476;29;20155;-69
2021/11/03 02:21:51;;;;;;;3.55;1.38;;;;;;;;;;4922054;29;20040;-69
2021/11/03 02:24:23;;;;;;;5.25;1.58;;;;;;;;;;4917915;29;20103;-69
2021/11/03 02:26:50;;;;;;;3.92;1.90;;;;;;;;;;4922547;29;20119;-70
2021/11/03 02:29:20;;;;;;;4.25;2.05;;;;;;;;;;4921350;29;20048;-70
2021/11/03 02:31:48;;;;;;;4.40;1.65;;;;;;;;;;4921780;29;20020;-70
2021/11/03 02:34:32;;;;;;;2.60;1.52;;;;;;;;;;4922816;29;20945;-70
2021/11/03 02:37:03;;;;;;;4.18;2.00;;;;;;;;;;4924887;29;20387;-70
2021/11/03 02:39:50;;;;;;;5.45;1.92;;;;;;;;;;4922853;29;20048;-70
2021/11/03 02:42:16;;;;;;;4.07;1.80;;;;;;;;;;4924526;29;20044;-70
2021/11/03 02:44:44;;;;;;;2.97;1.80;;;;;;;;;;4921239;29;20392;-70
2021/11/03 02:47:10;;;;;;;4.57;2.03;;;;;;;;;;4922644;29;20187;-69
2021/11/03 02:49:37;;;;;;;2.28;1.70;;;;;;;;;;4924008;29;20159;-70
2021/11/03 02:52:03;;;;;;;6.65;2.20;;;;;;;;;;4921230;29;20100;-70
2021/11/03 02:54:29;;;;;;;4.05;1.85;;;;;;;;;;4925298;29;20055;-71
2021/11/03 02:57:00;;;;;;;4.07;1.95;;;;;;;;;;4924045;29;20051;-70
2021/11/03 02:59:27;;;;;;;6.22;2.60;;;;;;;;;;4921136;29;20029;-71
2021/11/03 03:01:55;;;;;;;5.97;2.80;;;;;;;;;;4921825;29;20744;-70
2021/11/03 03:04:23;;;;;;;8.55;2.63;;;;;;;;;;4924527;29;20122;-70
2021/11/03 03:06:49;;;;;;;5.70;2.47;;;;;;;;;;4921841;29;20035;-70
2021/11/03 03:09:16;;;;;;;9.48;3.00;;;;;;;;;;4926573;29;20183;-72
2021/11/03 03:11:46;;;;;;;5.10;2.97;;;;;;;;;;4921277;29;20103;-70
2021/11/03 03:14:13;;;;;;;10.68;3.67;;;;;;;;;;4921485;29;20480;-70
2021/11/03 03:16:40;;;;;;;7.82;3.35;;;;;;;;;;4920184;29;20746;-69
2021/11/03 03:19:07;;;;;;;8.40;3.47;;;;;;;;;;4920733;29;20047;-71
2021/11/03 03:21:33;;;;;;;6.15;3.53;;;;;;;;;;4927577;29;20069;-70
2021/11/03 03:24:01;;;;;;;10.45;4.20;;;;;;;;;;4922619;29;20472;-71
2021/11/03 03:26:27;;;;;;;11.07;4.65;;;;;;;;;;4921621;29;20123;-70
2021/11/03 03:28:53;;;;;;;8.75;4.35;;;;;;;;;;4922757;29;20131;-70
2021/11/03 03:31:20;;;;;;;6.20;3.80;;;;;;;;;;4923663;29;20091;-70
2021/11/03 03:33:47;;;;;;;9.45;3.92;;;;;;;;;;4919610;29;20030;-70
2021/11/03 03:36:13;;;;;;;7.07;3.22;;;;;;;;;;4918839;29;20074;-69
2021/11/03 03:38:40;;;;;;;8.40;3.55;;;;;;;;;;4922547;29;20070;-70
2021/11/03 03:41:06;;;;;;;6.30;3.28;;;;;;;;;;4921416;29;20032;-71
2021/11/03 03:43:33;;;;;;;9.10;3.83;;;;;;;;;;4923779;29;20114;-70
2021/11/03 03:45:59;;;;;;;9.25;3.25;;;;;;;;;;4918865;29;20032;-69
2021/11/03 03:48:25;;;;;;;10.55;3.63;;;;;;;;;;4921023;29;20107;-70
2021/11/03 03:50:54;;;;;;;9.52;3.22;;;;;;;;;;4922732;29;20028;-69
2021/11/03 03:53:21;;;;;;;7.93;3.33;;;;;;;;;;4922362;29;20116;-70
2021/11/03 03:55:48;;;;;;;7.82;3.45;;;;;;;;;;4921111;29;20052;-70
2021/11/03 03:58:14;;;;;;;9.15;3.80;;;;;;;;;;4917623;29;20029;-70
2021/11/03 04:00:41;;;;;;;8.25;3.30;;;;;;;;;;4920589;29;20099;-71
2021/11/03 04:03:07;;;;;;;12.55;3.67;;;;;;;;;;4916194;29;20108;-71
2021/11/03 04:05:33;;;;;;;8.63;3.75;;;;;;;;;;4917074;29;20028;-70
2021/11/03 04:07:59;;;;;;;9.77;3.90;;;;;;;;;;4917080;29;20043;-70
2021/11/03 04:10:25;;;;;;;9.05;3.60;;;;;;;;;;4917783;29;20110;-70
2021/11/03 04:12:52;;;;;;;7.03;3.42;;;;;;;;;;4915350;29;20028;-70
2021/11/03 04:15:18;;;;;;;10.52;3.15;;;;;;;;;;4918303;29;20031;-69
2021/11/03 04:17:44;;;;;;;7.38;2.80;;;;;;;;;;4915979;29;20024;-70
2021/11/03 04:20:12;;;;;;;5.68;2.88;;;;;;;;;;4915514;29;20031;-71
2021/11/03 04:22:38;;;;;;;10.65;3.80;;;;;;;;;;4914342;29;20119;-69
2021/11/03 04:25:05;;;;;;;6.15;2.70;;;;;;;;;;4917472;29;20063;-69
2021/11/03 04:27:31;;;;;;;5.93;2.70;;;;;;;;;;4915276;29;20028;-70
2021/11/03 04:29:58;;;;;;;8.30;2.75;;;;;;;;;;4914133;29;20111;-70
2021/11/03 04:32:24;;;;;;;8.85;2.70;;;;;;;;;;4917189;29;20032;-70
2021/11/03 04:34:50;;;;;;;8.63;3.20;;;;;;;;;;4918239;29;20032;-69
2021/11/03 04:37:16;;;;;;;5.97;2.72;;;;;;;;;;4916394;29;20055;-70
2021/11/03 04:39:43;;;;;;;6.47;2.75;;;;;;;;;;4917256;29;20732;-73
2021/11/03 04:42:09;;;;;;;6.03;2.90;;;;;;;;;;4918255;29;20128;-70
2021/11/03 04:44:36;;;;;;;5.57;2.63;;;;;;;;;;4912647;29;20099;-69
2021/11/03 04:47:03;;;;;;;7.03;2.85;;;;;;;;;;4915107;29;20496;-69
2021/11/03 04:49:29;;;;;;;9.80;3.05;;;;;;;;;;4916518;29;20038;-70
2021/11/03 04:51:55;;;;;;;6.70;2.67;;;;;;;;;;4916101;29;20530;-69
2021/11/03 04:54:22;;;;;;;6.60;2.20;;;;;;;;;;4918072;29;20111;-70
2021/11/03 04:56:50;;;;;;;11.63;2.65;;;;;;;;;;4913411;29;20024;-70
2021/11/03 04:59:16;;;;;;;5.63;2.65;;;;;;;;;;4916632;29;20036;-70
2021/11/03 05:01:42;;;;;;;6.32;2.42;;;;;;;;;;4912936;29;20036;-70
2021/11/03 05:04:08;;;;;;;8.23;2.22;;;;;;;;;;4920073;29;20885;-70
2021/11/03 05:06:36;;;;;;;7.90;2.70;;;;;;;;;;4918589;29;20042;-69
2021/11/03 05:09:03;;;;;;;9.70;2.88;;;;;;;;;;4913853;29;20034;-70
2021/11/03 05:11:30;;;;;;;10.75;2.30;;;;;;;;;;4915876;29;20523;-69
2021/11/03 05:13:56;;;;;;;6.72;2.55;;;;;;;;;;4910342;29;20056;-69
2021/11/03 05:16:24;;;;;;;8.70;2.58;;;;;;;;;;4918763;29;20531;-71
2021/11/03 05:18:50;;;;;;;8.98;2.58;;;;;;;;;;4914420;29;20059;-69
2021/11/03 05:21:17;;;;;;;9.27;2.63;;;;;;;;;;4912657;29;20070;-70
2021/11/03 05:23:44;;;;;;;5.82;2.17;;;;;;;;;;4914805;29;20060;-69
2021/11/03 05:26:11;;;;;;;11.75;2.70;;;;;;;;;;4917074;29;20037;-70
2021/11/03 05:28:39;;;;;;;11.02;2.95;;;;;;;;;;4916413;29;20066;-71
2021/11/03 05:31:05;;;;;;;11.13;2.38;;;;;;;;;;4912327;29;20125;-70
2021/11/03 05:33:32;;;;;;;11.30;2.45;;;;;;;;;;4915170;29;20643;-71
2021/11/03 05:35:58;;;;;;;6.85;2.35;;;;;;;;;;4912493;29;20047;-69
2021/11/03 05:38:24;;;;;;;7.93;2.10;;;;;;;;;;4914128;29;20043;-70
2021/11/03 05:40:50;;;;;;;16.95;3.38;;;;;;;;;;4915590;29;20046;-69
2021/11/03 05:43:16;;;;;;;9.55;2.30;;;;;;;;;;4911919;29;20595;-69
2021/11/03 05:45:43;;;;;;;13.88;3.05;;;;;;;;;;4914146;29;20115;-70
2021/11/03 05:48:10;;;;;;;15.07;2.72;;;;;;;;;;4915168;29;20028;-70
2021/11/03 05:50:37;;;;;;;10.60;2.42;;;;;;;;;;4919693;29;20119;-70
2021/11/03 05:53:03;;;;;;;9.80;3.08;;;;;;;;;;4916414;29;20036;-70
2021/11/03 05:55:30;;;;;;;11.18;2.40;;;;;;;;;;4916059;29;20035;-70
2021/11/03 05:57:57;;;;;;;12.80;2.63;;;;;;;;;;4921466;29;20060;-69
2021/11/03 06:00:31;;;;;;;10.80;2.38;;;;;;;;;;4919060;29;20365;-70
2021/11/03 06:02:58;;;;;;;7.03;1.95;;;;;;;;;;4920219;29;20062;-69
2021/11/03 06:05:24;;;;;;;12.40;1.95;;;;;;;;;;4915979;29;20024;-70
2021/11/03 06:07:50;;;;;;;6.90;1.80;;;;;;;;;;4917799;29;20107;-70
2021/11/03 06:10:18;;;;;;;13.32;2.38;;;;;;;;;;4919929;29;20024;-69
2021/11/03 06:12:44;;;;;;;10.77;2.17;;;;;;;;;;4915791;29;20040;-70
2021/11/03 06:15:11;;;;;;;8.00;1.58;;;;;;;;;;4919370;29;20292;-69
2021/11/03 06:17:37;;;;;;;9.98;1.92;;;;;;;;;;4918003;29;20115;-69
2021/11/03 06:20:04;;;;;;;10.13;2.05;;;;;;;;;;4916713;29;20103;-70
2021/11/03 06:22:30;;;;;;;11.13;2.13;;;;;;;;;;4912048;29;20063;-70
2021/11/03 06:24:58;;;;;;;7.80;2.17;;;;;;;;;;4919598;29;20201;-70
2021/11/03 06:27:24;;;;;;;9.48;1.60;;;;;;;;;;4918900;29;20122;-70
2021/11/03 06:29:50;;;;;;;14.50;2.20;;;;;;;;;;4920007;29;20564;-70
2021/11/03 06:32:17;;;;;;;10.30;1.70;;;;;;;;;;4920547;29;20062;-71
2021/11/03 06:34:43;;;;;;;14.82;1.67;;;;;;;;;;4924654;29;20495;-70
2021/11/03 06:37:09;;;;;;;9.52;1.88;;;;;;;;;;4917557;29;20507;-70
2021/11/03 06:39:35;;;;;;;11.13;1.60;;;;;;;;;;4919001;29;20620;-70
2021/11/03 06:42:02;;;;;;;10.32;1.65;;;;;;;;;;4919962;29;20081;-70
2021/11/03 06:44:28;;;;;;;13.65;2.03;;;;;;;;;;4919130;29;20036;-74
2021/11/03 06:46:54;;;;;;;10.27;1.70;;;;;;;;;;4919071;29;20231;-71
2021/11/03 06:49:20;;;;;;;8.57;1.67;;;;;;;;;;4923305;29;20107;-71
2021/11/03 06:51:46;;;;;;;12.73;2.17;;;;;;;;;;4923042;29;20024;-70
2021/11/03 06:54:13;;;;;;;9.38;1.90;;;;;;;;;;4919372;29;20392;-70
2021/11/03 06:56:39;;;;;;;9.80;1.73;;;;;;;;;;4923224;29;20028;-69
2021/11/03 06:59:07;;;;;;;10.18;1.75;;;;;;;;;;4919083;29;20087;-69
2021/11/03 07:01:34;;;;;;;11.88;2.05;;;;;;;;;;4919531;29;20047;-70
2021/11/03 07:04:01;;;;;;;13.43;2.17;;;;;;;;;;4919758;29;20063;-71
2021/11/03 07:06:27;;;;;;;8.82;1.50;;;;;;;;;;4912929;29;20032;-70
2021/11/03 07:08:57;;;;;;;7.25;1.83;;;;;;;;;;4922695;29;20102;-70
2021/11/03 07:11:24;;;;;;;10.23;1.60;;;;;;;;;;4919136;29;20028;-70
2021/11/03 07:13:50;;;;;;;15.38;2.38;;;;;;;;;;4924460;29;20472;-70
2021/11/03 07:16:16;;;;;;;11.13;2.00;;;;;;;;;;4918415;29;20477;-70
2021/11/03 07:18:43;;;;;;;8.98;1.35;;;;;;;;;;4921027;29;20155;-71
2021/11/03 07:21:09;;;;;;;8.00;1.27;;;;;;;;;;4921877;29;20118;-70
2021/11/03 07:23:35;;;;;;;7.25;1.35;;;;;;;;;;4918194;29;20115;-69
2021/11/03 07:26:01;;;;;;;12.20;1.77;;;;;;;;;;4919149;29;20016;-70
2021/11/03 07:28:27;;;;;;;6.85;1.75;;;;;;;;;;4918690;29;21027;-70
2021/11/03 07:30:54;;;;;;;6.25;1.58;;;;;;;;;;4921852;29;20031;-70
2021/11/03 07:33:20;;;;;;;14.18;1.60;;;;;;;;;;4919122;29;20548;-71
2021/11/03 07:35:46;;;;;;;8.90;1.58;;;;;;;;;;4917822;29;20034;-71
2021/11/03 07:38:13;;;;;;;7.05;1.60;;;;;;;;;;4922342;29;20652;-71
2021/11/03 07:40:44;;;;;;;11.65;1.73;;;;;;;;;;4918732;29;20166;-70
2021/11/03 07:43:12;;;;;;;16.20;1.70;;;;;;;;;;4922441;29;20678;-71
2021/11/03 07:45:39;;;;;;;10.75;1.70;;;;;;;;;;4921059;29;20562;-69
2021/11/03 07:48:06;;;;;;;12.90;1.70;;;;;;;;;;4916745;29;20596;-70
2021/11/03 07:50:37;;;;;;;13.35;2.20;;;;;;;;;;4922927;29;20031;-71
2021/11/03 07:53:04;;;;;;;6.82;1.58;;;;;;;;;;4919451;29;20527;-70
2021/11/03 07:55:30;;;;;;;8.60;1.85;;;;;;;;;;4918984;29;20032;-70
2021/11/03 07:57:57;;;;;;;14.05;1.80;;;;;;;;;;4917437;29;20536;-71
2021/11/03 08:00:25;;;;;;;7.03;1.52;;;;;;;;;;4920184;29;20123;-71
2021/11/03 08:02:51;;;;;;;12.10;1.67;;;;;;;;;;4920614;29;20036;-70
2021/11/03 08:05:17;;;;;;;11.23;1.85;;;;;;;;;;4916297;29;20030;-70
2021/11/03 08:07:44;;;;;;;15.57;2.25;;;;;;;;;;4914849;29;20118;-70
2021/11/03 08:10:14;;;;;;;15.65;2.75;;;;;;;;;;4919196;29;20050;-70
2021/11/03 08:12:41;;;;;;;9.98;2.33;;;;;;;;;;4925036;29;20059;-70
2021/11/03 08:15:07;;;;;;;12.40;2.17;;;;;;;;;;4921428;29;20028;-70
2021/11/03 08:17:34;;;;;;;7.95;2.13;;;;;;;;;;4922589;29;20039;-70
2021/11/03 08:20:03;;;;;;;13.82;2.15;;;;;;;;;;4920935;29;20039;-70
2021/11/03 08:22:32;;;;;;;9.20;1.75;;;;;;;;;;4917877;29;20036;-70
2021/11/03 08:24:58;;;;;;;13.20;2.80;;;;;;;;;;4920650;29;20027;-70
2021/11/03 08:27:25;;;;;;;12.80;2.10;;;;;;;;;;4917551;29;20641;-71
2021/11/03 08:29:52;;;;;;;18.02;2.85;;;;;;;;;;4919267;29;20517;-70
2021/11/03 08:32:21;;;;;;;14.48;2.50;;;;;;;;;;4916934;29;20028;-71
2021/11/03 08:34:48;;;;;;;11.50;1.77;;;;;;;;;;4918743;29;20036;-71
2021/11/03 08:37:15;;;;;;;14.20;2.70;;;;;;;;;;4915563;29;20023;-70
2021/11/03 08:39:43;;;;;;;22.75;2.35;;;;;;;;;;4921582;29;20031;-70
2021/11/03 08:42:09;;;;;;;15.60;2.70;;;;;;;;;;4915279;29;20111;-71
2021/11/03 08:44:38;;;;;;;12.95;2.70;;;;;;;;;;4921978;29;20549;-70
2021/11/03 08:47:05;;;;;;;15.23;2.30;;;;;;;;;;4921314;29;20032;-71
2021/11/03 08:49:31;;;;;;;21.25;2.85;;;;;;;;;;4922485;29;20087;-71
2021/11/03 08:51:58;;;;;;;7.00;1.95;;;;;;;;;;4913308;29;20028;-70
2021/11/03 08:54:24;;;;;;;10.63;2.40;;;;;;;;;;4920970;29;20051;-71
2021/11/03 08:56:51;;;;;;;14.68;2.55;;;;;;;;;;4915170;29;20035;-70
2021/11/03 08:59:17;;;;;;;16.60;2.72;;;;;;;;;;4917369;29;20538;-70
2021/11/03 09:01:44;;;;;;;15.32;1.88;;;;;;;;;;4923925;29;20885;-70
2021/11/03 09:04:11;;;;;;;9.63;2.35;;;;;;;;;;4921106;29;20721;-70
2021/11/03 09:06:38;;;;;;;18.52;2.72;;;;;;;;;;4922328;29;20106;-72
2021/11/03 09:09:05;;;;;;;12.82;1.95;;;;;;;;;;4932440;29;20471;-70
2021/11/03 09:11:32;;;;;;;15.70;2.42;;;;;;;;;;4915183;29;20480;-70
2021/11/03 09:13:59;;;;;;;16.13;2.20;;;;;;;;;;4913515;29;20401;-70
2021/11/03 09:16:25;;;;;;;12.02;2.63;;;;;;;;;;4916068;29;20031;-70
2021/11/03 09:18:51;;;;;;;12.82;2.28;;;;;;;;;;4913927;29;20028;-70
2021/11/03 09:21:18;;;;;;;13.32;2.60;;;;;;;;;;4912289;29;20568;-70
2021/11/03 09:23:46;;;;;;;13.85;2.83;;;;;;;;;;4914852;29;20027;-70
2021/11/03 09:26:13;;;;;;;16.33;2.53;;;;;;;;;;4916766;29;20056;-71
2021/11/03 09:28:40;;;;;;;11.80;2.35;;;;;;;;;;4916138;29;20399;-69
2021/11/03 09:31:08;;;;;;;11.98;2.00;;;;;;;;;;4911401;29;20024;-68
2021/11/03 09:33:36;;;;;;;13.32;2.45;;;;;;;;;;4915690;29;20038;-67
2021/11/03 09:36:03;;;;;;;17.70;3.28;;;;;;;;;;4911732;29;20039;-67
2021/11/03 09:38:32;;;;;;;12.80;2.28;;;;;;;;;;4914217;29;20028;-68
2021/11/03 09:41:05;;;;;;;13.75;2.15;;;;;;;;;;4911755;29;20040;-67
2021/11/03 09:43:34;;;;;;;9.23;1.90;;;;;;;;;;4913528;29;20020;-67
2021/11/03 09:46:02;;;;;;;11.55;2.65;;;;;;;;;;4912329;29;20264;-74
2021/11/03 09:48:32;;;;;;;13.07;2.65;;;;;;;;;;4919369;29;20038;-74
2021/11/03 09:50:59;;;;;;;10.02;2.35;;;;;;;;;;4908264;29;20095;-74
2021/11/03 09:53:28;;;;;;;13.48;2.70;;;;;;;;;;4913369;29;20492;-74
2021/11/03 09:55:55;;;;;;;11.68;2.65;;;;;;;;;;4913879;29;20043;-76
2021/11/03 09:58:22;;;;;;;11.45;2.65;;;;;;;;;;4913291;29;20096;-74
2021/11/03 10:00:49;;;;;;;12.18;2.40;;;;;;;;;;4915780;29;20047;-73
2021/11/03 10:03:18;;;;;;;9.30;1.73;;;;;;;;;;4913093;29;20567;-73
2021/11/03 10:05:54;;;;;;;14.93;3.17;;;;;;;;;;4917125;29;20043;-75
2021/11/03 10:08:23;;;;;;;18.38;2.45;;;;;;;;;;4915010;29;20132;-72
2021/11/03 10:10:54;;;;;;;18.13;3.05;;;;;;;;;;4921325;29;20034;-75
2021/11/03 10:13:25;;;;;;;18.20;2.85;;;;;;;;;;4918402;29;20028;-74
2021/11/03 10:15:59;;;;;;;11.50;2.80;;;;;;;;;;4914408;29;20883;-82
2021/11/03 10:18:27;;;;;;;15.88;2.80;;;;;;;;;;4917247;29;20027;-74
2021/11/03 10:21:11;;;;;;;11.95;2.90;;;;;;;;;;4911883;29;20496;-75
2021/11/03 10:23:38;;;;;;;8.48;2.47;;;;;;;;;;4911522;29;20198;-73
2021/11/03 10:26:06;;;;;;;12.52;3.20;;;;;;;;;;4917697;29;20032;-73
2021/11/03 10:28:40;;;;;;;10.93;2.80;;;;;;;;;;4919356;29;20058;-74
2021/11/03 10:31:08;;;;;;;13.88;2.22;;;;;;;;;;4918916;29;20028;-75
2021/11/03 10:33:38;;;;;;;17.17;3.00;;;;;;;;;;4916200;29;20115;-74
2021/11/03 10:36:14;;;;;;;12.27;2.95;;;;;;;;;;4914499;29;20071;-74
2021/11/03 10:38:43;;;;;;;13.55;3.15;;;;;;;;;;4914706;29;20539;-73
2021/11/03 10:41:19;;;;;;;18.58;2.92;;;;;;;;;;4915991;29;20084;-75
2021/11/03 10:43:57;;;;;;;14.95;3.55;;;;;;;;;;4919502;29;20027;-76
2021/11/03 10:46:29;;;;;;;14.95;3.25;;;;;;;;;;4916118;29;20034;-75
2021/11/03 10:49:16;;;;;;;12.60;3.47;;;;;;;;;;4916895;29;20433;-73
2021/11/03 10:51:44;;;;;;;11.73;2.65;;;;;;;;;;4919870;29;20028;-74
2021/11/03 10:54:12;;;;;;;13.55;2.83;;;;;;;;;;4921786;29;20034;-74
2021/11/03 10:56:47;;;;;;;12.45;2.42;;;;;;;;;;4916655;29;20739;-73
2021/11/03 10:59:16;;;;;;;15.73;2.60;;;;;;;;;;4920863;29;20078;-74
2021/11/03 11:01:46;;;;;;;11.90;2.63;;;;;;;;;;4922868;29;20167;-73
2021/11/03 11:04:23;;;;;;;11.98;2.72;;;;;;;;;;4922601;29;20630;-79
2021/11/03 11:06:51;;;;;;;20.50;3.85;;;;;;;;;;4919411;29;20482;-73
2021/11/03 11:09:20;;;;;;;11.57;2.90;;;;;;;;;;4922220;29;20381;-77
2021/11/03 11:11:48;;;;;;;14.05;2.90;;;;;;;;;;4919234;29;20118;-73
2021/11/03 11:14:20;;;;;;;13.55;2.97;;;;;;;;;;4926291;29;20467;-73
2021/11/03 11:16:55;;;;;;;16.73;3.47;;;;;;;;;;4919050;29;20127;-73
2021/11/03 11:19:30;;;;;;;13.77;2.78;;;;;;;;;;4920634;29;20115;-75
2021/11/03 11:22:15;;;;;;;14.73;2.85;;;;;;;;;;4918683;29;20761;-75
2021/11/03 11:24:56;;;;;;;14.98;3.13;;;;;;;;;;4913017;29;20055;-75
2021/11/03 11:27:31;;;;;;;8.85;2.40;;;;;;;;;;4918870;29;20495;-75
2021/11/03 11:30:05;;;;;;;15.45;2.97;;;;;;;;;;4916894;29;20516;-75
2021/11/03 11:32:49;;;;;;;18.33;2.70;;;;;;;;;;4918765;29;20039;-75
2021/11/03 11:35:22;;;;;;;9.18;2.55;;;;;;;;;;4913789;29;20030;-75
2021/11/03 11:37:51;;;;;;;12.60;2.97;;;;;;;;;;4915726;29;20063;-75
2021/11/03 11:40:20;;;;;;;14.57;3.25;;;;;;;;;;4917289;29;20032;-74
2021/11/03 11:42:51;;;;;;;17.08;3.33;;;;;;;;;;4917431;29;20478;-76
2021/11/03 11:45:23;;;;;;;13.38;3.35;;;;;;;;;;4915216;29;20090;-75
2021/11/03 11:47:52;;;;;;;13.65;3.63;;;;;;;;;;4911164;29;20028;-74
2021/11/03 11:50:21;;;;;;;14.52;4.03;;;;;;;;;;4918919;29;20158;-75
2021/11/03 11:52:47;;;;;;;13.30;3.30;;;;;;;;;;4915285;29;20092;-75
2021/11/03 11:55:14;;;;;;;12.88;3.83;;;;;;;;;;4916923;29;20443;-75
2021/11/03 11:57:41;;;;;;;14.65;3.35;;;;;;;;;;4918107;29;20023;-75
2021/11/03 12:00:10;;;;;;;12.02;2.97;;;;;;;;;;4915293;29;20046;-75
2021/11/03 12:02:49;;;;;;;10.32;2.67;;;;;;;;;;4916240;29;20095;-75
2021/11/03 12:05:21;;;;;;;10.82;3.03;;;;;;;;;;4909738;29;20028;-75
2021/11/03 12:08:06;;;;;;;11.15;2.50;;;;;;;;;;4916314;29;20681;-75
2021/11/03 12:10:33;;;;;;;7.78;2.40;;;;;;;;;;4911948;29;20032;-75
2021/11/03 12:13:15;;;;;;;9.27;2.55;;;;;;;;;;4916265;29;20016;-75
2021/11/03 12:15:50;;;;;;;10.35;3.20;;;;;;;;;;4909890;29;20414;-75
2021/11/03 12:18:36;;;;;;;12.95;3.65;;;;;;;;;;4914445;29;20031;-75
2021/11/03 12:21:03;;;;;;;7.80;2.40;;;;;;;;;;4904852;29;20040;-75
2021/11/03 12:23:44;;;;;;;10.40;2.72;;;;;;;;;;4915063;29;20023;-75
2021/11/03 12:26:25;;;;;;;13.13;2.50;;;;;;;;;;4914311;29;20028;-75
2021/11/03 12:28:51;;;;;;;9.15;2.65;;;;;;;;;;4910051;29;20459;-75
2021/11/03 12:31:20;;;;;;;11.65;2.70;;;;;;;;;;4918654;29;20082;-75
2021/11/03 12:34:05;;;;;;;13.93;3.03;;;;;;;;;;4917609;29;20031;-75
2021/11/03 12:36:51;;;;;;;10.95;2.47;;;;;;;;;;4914716;29;20435;-75
2021/11/03 12:39:32;;;;;;;13.13;1.95;;;;;;;;;;4914731;29;20028;-75
2021/11/03 12:42:18;;;;;;;7.10;1.63;;;;;;;;;;4915778;29;20461;-74
2021/11/03 12:45:04;;;;;;;9.48;2.38;;;;;;;;;;4917459;29;20374;-74
2021/11/03 12:47:33;;;;;;;8.90;2.28;;;;;;;;;;4905091;29;20040;-74
2021/11/03 12:50:07;;;;;;;5.90;2.42;;;;;;;;;;4918391;29;20015;-74
2021/11/03 12:52:41;;;;;;;11.18;2.33;;;;;;;;;;4912298;29;20031;-75
2021/11/03 12:55:18;;;;;;;11.27;2.78;;;;;;;;;;4916505;29;20388;-75
2021/11/03 12:57:46;;;;;;;9.32;2.03;;;;;;;;;;4911051;29;20039;-75
2021/11/03 13:00:17;;;;;;;10.63;2.17;;;;;;;;;;4915781;29;20032;-75
2021/11/03 13:02:45;;;;;;;7.87;2.03;;;;;;;;;;4913817;29;20071;-75
2021/11/03 13:05:20;;;;;;;10.05;2.25;;;;;;;;;;4913017;29;20028;-75
2021/11/03 13:07:47;;;;;;;6.50;2.30;;;;;;;;;;4914030;29;20036;-75
2021/11/03 13:10:19;;;;;;;11.40;2.67;;;;;;;;;;4919476;29;20023;-75
2021/11/03 13:12:54;;;;;;;10.68;2.70;;;;;;;;;;4913706;29;20028;-74
2021/11/03 13:15:23;;;;;;;7.38;2.22;;;;;;;;;;4914836;29;20452;-75
2021/11/03 13:17:52;;;;;;;7.85;2.08;;;;;;;;;;4914481;29;20028;-75
2021/11/03 13:20:44;;;;;;;9.38;2.83;;;;;;;;;;4912134;29;20027;-74
2021/11/03 13:23:16;;;;;;;10.93;2.22;;;;;;;;;;4909820;29;20157;-74
2021/11/03 13:25:47;;;;;;;11.57;2.58;;;;;;;;;;4908825;29;20458;-75
2021/11/03 13:28:23;;;;;;;12.07;1.85;;;;;;;;;;4914403;29;20047;-74
2021/11/03 13:30:59;;;;;;;13.63;2.83;;;;;;;;;;4913183;29;20506;-75
2021/11/03 13:33:32;;;;;;;11.85;2.10;;;;;;;;;;4915497;29;20697;-75
2021/11/03 13:36:04;;;;;;;7.97;2.20;;;;;;;;;;4913646;29;20497;-75
2021/11/03 13:38:33;;;;;;;16.63;2.72;;;;;;;;;;4917105;29;20134;-76
2021/11/03 13:41:00;;;;;;;16.13;2.55;;;;;;;;;;4914362;29;20035;-74
2021/11/03 13:43:26;;;;;;;12.18;2.80;;;;;;;;;;4916327;29;20028;-74
2021/11/03 13:45:57;;;;;;;9.43;2.10;;;;;;;;;;4911726;29;20046;-75
2021/11/03 13:48:38;;;;;;;15.82;2.63;;;;;;;;;;4914218;29;20556;-75
2021/11/03 13:51:16;;;;;;;8.25;2.33;;;;;;;;;;4916840;29;20028;-74
2021/11/03 13:53:50;;;;;;;9.80;2.08;;;;;;;;;;4912623;29;20028;-75
2021/11/03 13:56:16;;;;;;;10.23;1.80;;;;;;;;;;4914792;29;20555;-74
2021/11/03 13:58:58;;;;;;;9.77;2.53;;;;;;;;;;4912606;29;20028;-75
2021/11/03 14:01:25;;;;;;;9.95;1.83;;;;;;;;;;4913919;29;20639;-76
2021/11/03 14:03:57;;;;;;;9.95;2.15;;;;;;;;;;4915426;29;20020;-74
2021/11/03 14:06:29;;;;;;;11.50;2.25;;;;;;;;;;4913184;29;20024;-74
2021/11/03 14:09:10;;;;;;;11.23;2.25;;;;;;;;;;4913958;29;20032;-75
2021/11/03 14:11:37;;;;;;;9.02;1.83;;;;;;;;;;4911042;29;20024;-75
2021/11/03 14:14:03;;;;;;;9.27;1.98;;;;;;;;;;4917113;29;20559;-75
2021/11/03 14:16:31;;;;;;;12.98;2.50;;;;;;;;;;4918851;29;20480;-75
2021/11/03 14:18:59;;;;;;;7.95;1.95;;;;;;;;;;4925968;29;20130;-75
2021/11/03 14:21:25;;;;;;;8.40;1.77;;;;;;;;;;4925628;29;20520;-75
2021/11/03 14:23:52;;;;;;;12.30;2.88;;;;;;;;;;4926884;29;20030;-75
2021/11/03 14:26:20;;;;;;;10.10;2.05;;;;;;;;;;4927424;29;20052;-75
2021/11/03 14:28:47;;;;;;;13.90;2.22;;;;;;;;;;4925504;29;20046;-75
2021/11/03 14:31:18;;;;;;;10.60;2.47;;;;;;;;;;4927016;29;20024;-75
2021/11/03 14:33:45;;;;;;;6.82;1.60;;;;;;;;;;4925156;29;20036;-75
2021/11/03 14:36:15;;;;;;;13.65;2.90;;;;;;;;;;4926002;29;20638;-75
2021/11/03 14:38:42;;;;;;;11.63;2.25;;;;;;;;;;4924246;29;20040;-75
2021/11/03 14:41:10;;;;;;;8.57;2.53;;;;;;;;;;4926145;29;20087;-75
2021/11/03 14:43:38;;;;;;;12.52;1.90;;;;;;;;;;4924145;29;20040;-75
2021/11/03 14:46:23;;;;;;;7.60;2.08;;;;;;;;;;4935237;29;20012;-76